Flinterbrise — PHCA — position and weather

sailwx.info

Track history (hours):
 
Tides and Currents Weather Stations Pressure Air Temp Water Temp Dewpoint Dewpoint Depression Visibility Wind Speed Wind Dir Waves Ship Positions

Flinterbrise

Last reported at 2014-Oct-30 18:33 UTC. Time now 2014-Oct-30 19:03 UTC.
Position N 53°32' E 009°57'.

Length 83 m; draft 3.8 m.

Type: Ship. MMSI: 246044000.

Date/timePositionNaut miles runAvg speedWind from/ knotsBaromVisibWave heightAir tempDewpointWater temp
2014-Oct-30 18:33N 53°32' E 009°57'0 0.0
2014-Oct-30 17:32N 53°32' E 009°57'0 0.0
2014-Oct-30 16:32N 53°32' E 009°57'0 0.0
2014-Oct-30 15:33N 53°32' E 009°57'0 0.0
2014-Oct-30 14:32N 53°32' E 009°57'0 0.0
2014-Oct-30 13:32N 53°32' E 009°57'0 0.0
2014-Oct-30 12:33N 53°32' E 009°57'0 0.0
2014-Oct-30 11:30N 53°32' E 009°57'0 0.0
2014-Oct-30 10:32N 53°32' E 009°57'0 0.0
2014-Oct-30 09:32N 53°32' E 009°57'0 0.0
2014-Oct-30 08:32N 53°32' E 009°57'0 0.0
2014-Oct-30 07:28N 53°32' E 009°57'0 0.0
2014-Oct-30 06:28N 53°32' E 009°57'0 0.0
2014-Oct-30 05:33N 53°32' E 009°57'0 0.0
2014-Oct-30 04:33N 53°32' E 009°57'0 0.0
2014-Oct-30 03:29N 53°32' E 009°57'0 0.0
2014-Oct-30 02:32N 53°32' E 009°57'0 0.0
2014-Oct-30 01:28N 53°32' E 009°57'0 0.0
2014-Oct-30 00:31N 53°32' E 009°57'0 0.0
2014-Oct-29 23:31N 53°32' E 009°57'0 0.0
2014-Oct-29 22:33N 53°32' E 009°57'0 0.0
2014-Oct-29 21:33N 53°32' E 009°57'0 0.0
2014-Oct-29 20:29N 53°32' E 009°57'0 0.0
2014-Oct-29 19:32N 53°32' E 009°57'0 0.0
2014-Oct-29 18:25N 53°32' E 009°57'0 0.0
2014-Oct-29 17:28N 53°32' E 009°57'0 0.0
2014-Oct-29 16:34N 53°32' E 009°57'0 0.0
2014-Oct-29 15:33N 53°32' E 009°57'0 0.0
2014-Oct-29 14:33N 53°32' E 009°57'0 0.0
2014-Oct-29 13:32N 53°32' E 009°57'0 0.2
2014-Oct-29 12:33N 53°32' E 009°57'9 8.6
2014-Oct-29 11:34N 53°34' E 009°43'9 8.5
2014-Oct-29 10:33N 53°39' E 009°31'7 7.5
2014-Oct-29 09:33N 53°45' E 009°24'8 7.6
2014-Oct-29 08:33N 53°51' E 009°18'7 6.9
2014-Oct-29 07:34N 53°53' E 009°06'8 7.5
2014-Oct-29 06:33N 53°50' E 008°54'8 8.0
2014-Oct-29 05:34N 53°54' E 008°42'9 8.7
2014-Oct-29 04:34N 53°58' E 008°29'1110.5
2014-Oct-29 03:31N 53°59' E 008°10'12 1.1
2014-Oct-28 16:33N 53°55' E 007°52'35 8.3
2014-Oct-28 12:18N 53°48' E 006°53'9 9.7
2014-Oct-28 11:23N 53°47' E 006°38'11 9.9
2014-Oct-28 10:16N 53°45' E 006°20'811.7
2014-Oct-28 09:33N 53°42' E 006°07'1212.3
2014-Oct-28 08:33N 53°38' E 005°47'1212.3
2014-Oct-28 07:33N 53°34' E 005°27'1212.4
2014-Oct-28 06:33N 53°30' E 005°07'1311.9
2014-Oct-28 05:25N 53°25' E 004°46'4310.9
2014-Oct-28 01:26N 52°48' E 004°11'1010.1
2014-Oct-28 00:29N 52°40' E 004°02'9 9.9
2014-Oct-27 23:32N 52°31' E 003°55'11 9.8
2014-Oct-27 22:27N 52°21' E 003°52'910.0
2014-Oct-27 21:33N 52°12' E 003°54'1010.5
2014-Oct-27 20:33N 52°02' E 003°59'1312.8
2014-Oct-27 19:33N 51°54' E 004°16'5 4.7
2014-Oct-27 18:31N 51°54' E 004°24'0 0.0
2014-Oct-27 17:33N 51°54' E 004°24'0 0.0
2014-Oct-27 16:30N 51°54' E 004°24'0 0.0
2014-Oct-27 15:32N 51°54' E 004°24'0 0.0
2014-Oct-27 14:32N 51°54' E 004°24'0 0.0
2014-Oct-27 13:31N 51°54' E 004°24'0 0.0
2014-Oct-27 12:31N 51°54' E 004°24'0 0.0
2014-Oct-27 11:28N 51°54' E 004°24'0 0.0
2014-Oct-27 10:33N 51°54' E 004°24'0 0.0
2014-Oct-27 09:30N 51°54' E 004°24'0 0.0
2014-Oct-27 08:32N 51°54' E 004°24'0 0.0
2014-Oct-27 07:32N 51°54' E 004°24'0 0.0
2014-Oct-27 06:31N 51°54' E 004°24'0 0.0
2014-Oct-27 05:28N 51°54' E 004°24'0 0.0
2014-Oct-27 04:31N 51°54' E 004°24'0 0.0
2014-Oct-27 03:33N 51°54' E 004°24'0 0.0
2014-Oct-27 02:30N 51°54' E 004°24'0 0.0
2014-Oct-27 01:32N 51°54' E 004°24'0 0.0
2014-Oct-27 00:32N 51°54' E 004°24'0 0.0
2014-Oct-26 23:31N 51°54' E 004°24'0 0.0
2014-Oct-26 22:32N 51°54' E 004°24'0 0.0
2014-Oct-26 21:31N 51°54' E 004°24'0 0.0
2014-Oct-26 20:33N 51°54' E 004°24'0 0.0
2014-Oct-26 19:33N 51°54' E 004°24'0 0.0
2014-Oct-26 18:29N 51°54' E 004°24'0 0.0
2014-Oct-26 17:32N 51°54' E 004°24'0 0.0
2014-Oct-26 16:31N 51°54' E 004°24'0 0.0
2014-Oct-26 15:31N 51°54' E 004°24'0 0.0
2014-Oct-26 14:33N 51°54' E 004°24'0 0.0
2014-Oct-26 13:33N 51°54' E 004°24'0 0.0
2014-Oct-26 12:33N 51°54' E 004°24'3 3.0
2014-Oct-26 11:34N 51°54' E 004°19'9 8.5
2014-Oct-26 10:33N 51°58' E 004°07'95 6.3
2014-Oct-25 19:29N 53°30' E 004°49'6 6.0
2014-Oct-25 18:31N 53°33' E 004°57'12 6.1
2014-Oct-25 16:32N 53°37' E 005°17'8 7.7
2014-Oct-25 15:31N 53°40' E 005°29'8 8.7
2014-Oct-25 14:33N 53°42' E 005°42'67 8.4
2014-Oct-25 06:34N 53°60' E 007°32'9 8.8
2014-Oct-25 05:33N 54°02' E 007°47'10 9.9
2014-Oct-25 04:33N 54°01' E 008°04'1111.0
2014-Oct-25 03:33N 53°60' E 008°22'1211.9
2014-Oct-25 02:33N 53°55' E 008°41'9 9.4
2014-Oct-25 01:34N 53°51' E 008°55'11 4.5
2014-Oct-24 23:06N 53°55' E 009°12'51 5.8
2014-Oct-24 14:20N 54°30' E 010°16'51 8.7
2014-Oct-24 08:28N 54°29' E 011°44'9 9.8
2014-Oct-24 07:33N 54°27' E 011°59'8 7.9
2014-Oct-24 06:33N 54°31' E 012°11'64 9.1
2014-Oct-23 23:31N 55°01' E 013°48'9 9.3
2014-Oct-23 22:33N 55°04' E 014°03'9 9.3
2014-Oct-23 21:33N 55°11' E 014°14'10 9.6
2014-Oct-23 20:33N 55°18' E 014°25'10 9.6
2014-Oct-23 19:33N 55°25' E 014°36'10 9.6
2014-Oct-23 18:33N 55°31' E 014°50'9 9.4
2014-Oct-23 17:33N 55°36' E 015°04'366 9.8
2014-Oct-22 04:18N 59°39' E 023°35'  
Track history (hours):
 
Tides and Currents Weather Stations Pressure Air Temp Water Temp Dewpoint Dewpoint Depression Visibility Wind Speed Wind Dir Waves Ship Positions

Flinterbrise

Last reported at 2014-Oct-30 18:33 UTC. Time now 2014-Oct-30 19:03 UTC.
Position N 53°32' E 009°57'.

Length 83 m; draft 3.8 m.

Type: Ship. MMSI: 246044000.

Date/timePositionNaut miles runAvg speedWind from/ knotsBaromVisibWave heightAir tempDewpointWater temp
2014-Oct-30 18:33N 53°32' E 009°57'0 0.0
2014-Oct-30 17:32N 53°32' E 009°57'0 0.0
2014-Oct-30 16:32N 53°32' E 009°57'0 0.0
2014-Oct-30 15:33N 53°32' E 009°57'0 0.0
2014-Oct-30 14:32N 53°32' E 009°57'0 0.0
2014-Oct-30 13:32N 53°32' E 009°57'0 0.0
2014-Oct-30 12:33N 53°32' E 009°57'0 0.0
2014-Oct-30 11:30N 53°32' E 009°57'0 0.0
2014-Oct-30 10:32N 53°32' E 009°57'0 0.0
2014-Oct-30 09:32N 53°32' E 009°57'0 0.0
2014-Oct-30 08:32N 53°32' E 009°57'0 0.0
2014-Oct-30 07:28N 53°32' E 009°57'0 0.0
2014-Oct-30 06:28N 53°32' E 009°57'0 0.0
2014-Oct-30 05:33N 53°32' E 009°57'0 0.0
2014-Oct-30 04:33N 53°32' E 009°57'0 0.0
2014-Oct-30 03:29N 53°32' E 009°57'0 0.0
2014-Oct-30 02:32N 53°32' E 009°57'0 0.0
2014-Oct-30 01:28N 53°32' E 009°57'0 0.0
2014-Oct-30 00:31N 53°32' E 009°57'0 0.0
2014-Oct-29 23:31N 53°32' E 009°57'0 0.0
2014-Oct-29 22:33N 53°32' E 009°57'0 0.0
2014-Oct-29 21:33N 53°32' E 009°57'0 0.0
2014-Oct-29 20:29N 53°32' E 009°57'0 0.0
2014-Oct-29 19:32N 53°32' E 009°57'0 0.0
2014-Oct-29 18:25N 53°32' E 009°57'0 0.0
2014-Oct-29 17:28N 53°32' E 009°57'0 0.0
2014-Oct-29 16:34N 53°32' E 009°57'0 0.0
2014-Oct-29 15:33N 53°32' E 009°57'0 0.0
2014-Oct-29 14:33N 53°32' E 009°57'0 0.0
2014-Oct-29 13:32N 53°32' E 009°57'0 0.2
2014-Oct-29 12:33N 53°32' E 009°57'9 8.6
2014-Oct-29 11:34N 53°34' E 009°43'9 8.5
2014-Oct-29 10:33N 53°39' E 009°31'7 7.5
2014-Oct-29 09:33N 53°45' E 009°24'8 7.6
2014-Oct-29 08:33N 53°51' E 009°18'7 6.9
2014-Oct-29 07:34N 53°53' E 009°06'8 7.5
2014-Oct-29 06:33N 53°50' E 008°54'8 8.0
2014-Oct-29 05:34N 53°54' E 008°42'9 8.7
2014-Oct-29 04:34N 53°58' E 008°29'1110.5
2014-Oct-29 03:31N 53°59' E 008°10'12 1.1
2014-Oct-28 16:33N 53°55' E 007°52'35 8.3
2014-Oct-28 12:18N 53°48' E 006°53'9 9.7
2014-Oct-28 11:23N 53°47' E 006°38'11 9.9
2014-Oct-28 10:16N 53°45' E 006°20'811.7
2014-Oct-28 09:33N 53°42' E 006°07'1212.3
2014-Oct-28 08:33N 53°38' E 005°47'1212.3
2014-Oct-28 07:33N 53°34' E 005°27'1212.4
2014-Oct-28 06:33N 53°30' E 005°07'1311.9
2014-Oct-28 05:25N 53°25' E 004°46'4310.9
2014-Oct-28 01:26N 52°48' E 004°11'1010.1
2014-Oct-28 00:29N 52°40' E 004°02'9 9.9
2014-Oct-27 23:32N 52°31' E 003°55'11 9.8
2014-Oct-27 22:27N 52°21' E 003°52'910.0
2014-Oct-27 21:33N 52°12' E 003°54'1010.5
2014-Oct-27 20:33N 52°02' E 003°59'1312.8
2014-Oct-27 19:33N 51°54' E 004°16'5 4.7
2014-Oct-27 18:31N 51°54' E 004°24'0 0.0
2014-Oct-27 17:33N 51°54' E 004°24'0 0.0
2014-Oct-27 16:30N 51°54' E 004°24'0 0.0
2014-Oct-27 15:32N 51°54' E 004°24'0 0.0
2014-Oct-27 14:32N 51°54' E 004°24'0 0.0
2014-Oct-27 13:31N 51°54' E 004°24'0 0.0
2014-Oct-27 12:31N 51°54' E 004°24'0 0.0
2014-Oct-27 11:28N 51°54' E 004°24'0 0.0
2014-Oct-27 10:33N 51°54' E 004°24'0 0.0
2014-Oct-27 09:30N 51°54' E 004°24'0 0.0
2014-Oct-27 08:32N 51°54' E 004°24'0 0.0
2014-Oct-27 07:32N 51°54' E 004°24'0 0.0
2014-Oct-27 06:31N 51°54' E 004°24'0 0.0
2014-Oct-27 05:28N 51°54' E 004°24'0 0.0
2014-Oct-27 04:31N 51°54' E 004°24'0 0.0
2014-Oct-27 03:33N 51°54' E 004°24'0 0.0
2014-Oct-27 02:30N 51°54' E 004°24'0 0.0
2014-Oct-27 01:32N 51°54' E 004°24'0 0.0
2014-Oct-27 00:32N 51°54' E 004°24'0 0.0
2014-Oct-26 23:31N 51°54' E 004°24'0 0.0
2014-Oct-26 22:32N 51°54' E 004°24'0 0.0
2014-Oct-26 21:31N 51°54' E 004°24'0 0.0
2014-Oct-26 20:33N 51°54' E 004°24'0 0.0
2014-Oct-26 19:33N 51°54' E 004°24'0 0.0
2014-Oct-26 18:29N 51°54' E 004°24'0 0.0
2014-Oct-26 17:32N 51°54' E 004°24'0 0.0
2014-Oct-26 16:31N 51°54' E 004°24'0 0.0
2014-Oct-26 15:31N 51°54' E 004°24'0 0.0
2014-Oct-26 14:33N 51°54' E 004°24'0 0.0
2014-Oct-26 13:33N 51°54' E 004°24'0 0.0
2014-Oct-26 12:33N 51°54' E 004°24'3 3.0
2014-Oct-26 11:34N 51°54' E 004°19'9 8.5
2014-Oct-26 10:33N 51°58' E 004°07'95 6.3
2014-Oct-25 19:29N 53°30' E 004°49'6 6.0
2014-Oct-25 18:31N 53°33' E 004°57'12 6.1
2014-Oct-25 16:32N 53°37' E 005°17'8 7.7
2014-Oct-25 15:31N 53°40' E 005°29'8 8.7
2014-Oct-25 14:33N 53°42' E 005°42'67 8.4
2014-Oct-25 06:34N 53°60' E 007°32'9 8.8
2014-Oct-25 05:33N 54°02' E 007°47'10 9.9
2014-Oct-25 04:33N 54°01' E 008°04'1111.0
2014-Oct-25 03:33N 53°60' E 008°22'1211.9
2014-Oct-25 02:33N 53°55' E 008°41'9 9.4
2014-Oct-25 01:34N 53°51' E 008°55'11 4.5
2014-Oct-24 23:06N 53°55' E 009°12'51 5.8
2014-Oct-24 14:20N 54°30' E 010°16'51 8.7
2014-Oct-24 08:28N 54°29' E 011°44'9 9.8
2014-Oct-24 07:33N 54°27' E 011°59'8 7.9
2014-Oct-24 06:33N 54°31' E 012°11'64 9.1
2014-Oct-23 23:31N 55°01' E 013°48'9 9.3
2014-Oct-23 22:33N 55°04' E 014°03'9 9.3
2014-Oct-23 21:33N 55°11' E 014°14'10 9.6
2014-Oct-23 20:33N 55°18' E 014°25'10 9.6
2014-Oct-23 19:33N 55°25' E 014°36'10 9.6
2014-Oct-23 18:33N 55°31' E 014°50'9 9.4
2014-Oct-23 17:33N 55°36' E 015°04'366 9.8
2014-Oct-22 04:18N 59°39' E 023°35'  

Dump ship's entire track history